Chicago, IL (60622)

3:00 AM CST on February 10, 2016 (GMT -0600)
West Town | | Change Station
CLOSE
Current Station
Personal Weather Station
Location: Chicago, IL
Elevation: 591 ft
Nearby Weather Stations

Elev 591 ft 41.90 °N, 87.68 °W | Updated 5 minutes ago

Partly Cloudy
Partly Cloudy
12.9 °F
Feels Like 3 °F
N
6.7
Wind Variable Wind from NNW

Today
High -- | Low -- °F
--% Chance of Precip.
Yesterday
High -- | Low -- °F
Precip. -- in
Pressure 30.02 in
Visibility 10.0 miles
Clouds Few 8000 ft
Windchill 3 °F
Dew Point 3 °F
Humidity 64%
Rainfall 0.00 in
Snow Depth Not available.
6:53 AM 5:16 PM
Waxing Crescent, 4% visible
METAR KMDW 100853Z 32011KT 10SM FEW080 M10/M17 A2996 RMK AO2 SLP165 60000 T11001167 52006
Pressure 30.02 in
Visibility 10.0 miles
Clouds Few 8000 ft
Windchill 3 °F
Dew Point 3 °F
Humidity 64%
Rainfall 0.00 in
Snow Depth Not available.
6:53 AM 5:16 PM
Waxing Crescent, 4% visible
METAR KMDW 100853Z 32011KT 10SM FEW080 M10/M17 A2996 RMK AO2 SLP165 60000 T11001167 52006

10-Day Weather Forecast

Almanac

Astronomy

Feb. 10, 2016 Rise Set
Actual Time
Civil Twilight
Nautical Twilight
Astronomical Twilight
Moon
Length of Visible Light
Length of Day
Tomorrow will be .
, % of the Moon is Illuminated

Today's Extremes

State Highs State Lows

Community

WunderPhotos

Upload Photos

1,891,826 photos uploaded!

WunderBlog® & News

Nearby

Air Quality

  Air Quality AQ Index Pollutant
Not available.

Snow Depth

Station Depth Elevation

Earthquake Activity

City Distance Mag. Time & Date
Minimum magnitude displayed is 2.5.

Coastal Water Temperatures

Place Temperature

Stations

Nearby Weather Stations

Station Location Temp. Windchill Dew Point Humidity Wind Precip. Elev Updated Type
                   

Watches & Warnings

There are currently no watches in effect.